createdAt,value
2022-08-22T00:00:13.447Z,100590.94
2022-08-22T00:02:58.609Z,100602.31
2022-08-22T00:03:02.259Z,100636.16
2022-08-22T00:03:02.939Z,100639.72
2022-08-22T00:03:07.176Z,100607.69
2022-08-22T00:03:46.543Z,100589.56
2022-08-22T00:07:16.137Z,100589.00
2022-08-22T00:10:55.778Z,100589.13
2022-08-22T00:14:23.765Z,100576.38
2022-08-22T00:17:53.561Z,100588.16
2022-08-22T00:21:21.455Z,100590.09
2022-08-22T00:24:49.895Z,100577.78
2022-08-22T00:28:15.055Z,100588.00
2022-08-22T00:31:41.151Z,100581.84
2022-08-22T00:35:09.124Z,100589.38
2022-08-22T00:38:37.765Z,100588.00
2022-08-22T00:42:32.130Z,100585.34
2022-08-22T00:46:23.621Z,100592.19
2022-08-22T00:50:26.357Z,100582.13
2022-08-22T00:53:54.439Z,100592.47
2022-08-22T00:57:32.745Z,100594.53
2022-08-22T01:00:59.591Z,100586.16
2022-08-22T01:04:33.987Z,100597.06
2022-08-22T01:08:16.576Z,100591.06
2022-08-22T01:12:01.718Z,100586.84
2022-08-22T01:15:28.887Z,100580.41
2022-08-22T01:19:17.557Z,100570.91
2022-08-22T01:23:27.768Z,100556.22
2022-08-22T01:27:18.641Z,100578.31
2022-08-22T01:30:59.229Z,100581.81
2022-08-22T01:34:59.799Z,100575.22
2022-08-22T01:38:43.421Z,100588.25
2022-08-22T01:42:50.631Z,100580.13
2022-08-22T01:46:26.079Z,100588.25
2022-08-22T01:49:55.622Z,100578.03
2022-08-22T01:53:26.028Z,100593.81
2022-08-22T01:56:50.942Z,100585.00
2022-08-22T02:00:19.820Z,100590.47
2022-08-22T02:04:04.760Z,100595.06
2022-08-22T02:07:40.783Z,100589.59
2022-08-22T02:11:07.265Z,100570.09
2022-08-22T02:14:41.655Z,100588.03
2022-08-22T02:18:18.881Z,100588.63
2022-08-22T02:21:47.149Z,100595.78
2022-08-22T02:25:16.636Z,100588.91
2022-08-22T02:28:57.086Z,100595.28
2022-08-22T02:32:23.862Z,100592.19
2022-08-22T02:35:53.390Z,100599.22
2022-08-22T02:39:27.010Z,100597.38
2022-08-22T02:43:01.347Z,100605.34
2022-08-22T02:46:29.575Z,100602.97
2022-08-22T02:50:01.245Z,100596.94
2022-08-22T02:53:30.320Z,100600.00
2022-08-22T02:56:59.001Z,100608.38
2022-08-22T03:00:32.542Z,100607.81
2022-08-22T03:04:21.661Z,100606.63
2022-08-22T03:07:47.109Z,100623.53
2022-08-22T03:11:19.493Z,100628.53
2022-08-22T03:14:48.626Z,100632.28
2022-08-22T03:18:21.536Z,100614.66
2022-08-22T03:21:49.210Z,100615.59
2022-08-22T03:25:19.821Z,100634.50
2022-08-22T03:28:59.176Z,100634.75
2022-08-22T03:32:24.449Z,100641.88
2022-08-22T03:36:03.541Z,100645.25
2022-08-22T03:39:48.875Z,100652.50
2022-08-22T03:43:50.982Z,100658.06
2022-08-22T03:47:54.924Z,100656.13
2022-08-22T03:51:35.308Z,100639.63
2022-08-22T03:55:24.104Z,100656.00
2022-08-22T03:59:10.230Z,100665.78
2022-08-22T04:03:08.005Z,100657.97
2022-08-22T04:07:31.653Z,100669.53
2022-08-22T04:11:16.662Z,100655.56
2022-08-22T04:15:00.663Z,100661.97
2022-08-22T04:18:50.081Z,100654.53
2022-08-22T04:22:34.397Z,100674.66
2022-08-22T04:26:00.735Z,100670.13
2022-08-22T04:29:35.149Z,100684.94
2022-08-22T04:33:03.182Z,100682.28
2022-08-22T04:36:29.646Z,100682.53
2022-08-22T04:39:58.650Z,100685.19
2022-08-22T04:43:24.933Z,100693.03
2022-08-22T04:46:54.071Z,100691.72
2022-08-22T04:50:23.733Z,100702.22
2022-08-22T04:54:03.084Z,100692.25
2022-08-22T04:57:32.763Z,100710.78
2022-08-22T05:01:00.638Z,100707.13
2022-08-22T05:04:27.672Z,100706.28
2022-08-22T05:07:53.999Z,100710.50
2022-08-22T05:11:20.953Z,100721.13
2022-08-22T05:14:48.428Z,100718.34
2022-08-22T05:18:15.272Z,100715.56
2022-08-22T05:21:41.751Z,100720.88
2022-08-22T05:25:11.098Z,100717.13
2022-08-22T05:28:37.456Z,100694.53
2022-08-22T05:32:04.910Z,100712.19
2022-08-22T05:35:34.967Z,100724.38
2022-08-22T05:39:00.868Z,100729.78
2022-08-22T05:42:27.779Z,100735.81
2022-08-22T05:45:50.088Z,100723.97
2022-08-22T05:49:19.930Z,100735.19
2022-08-22T05:53:06.316Z,100744.56
2022-08-22T05:56:37.921Z,100750.84
2022-08-22T06:00:06.413Z,100746.63
2022-08-22T06:03:35.045Z,100750.72
2022-08-22T06:07:06.342Z,100737.44
2022-08-22T06:10:33.317Z,100752.75
2022-08-22T06:14:01.965Z,100736.84
2022-08-22T06:17:28.543Z,100754.09
2022-08-22T06:20:57.319Z,100757.97
2022-08-22T06:24:25.136Z,100765.53
2022-08-22T06:27:50.160Z,100734.00
2022-08-22T06:31:18.897Z,100764.06
2022-08-22T06:34:44.224Z,100759.34
2022-08-22T06:38:06.156Z,100753.31
2022-08-22T06:41:34.536Z,100758.38
2022-08-22T06:44:58.507Z,100764.97
2022-08-22T06:48:23.688Z,100770.81
2022-08-22T06:51:47.912Z,100774.41
2022-08-22T06:55:11.308Z,100767.94
2022-08-22T06:58:39.416Z,100783.94
2022-08-22T07:02:05.711Z,100779.72
2022-08-22T07:05:29.359Z,100786.34
2022-08-22T07:08:55.153Z,100790.88
2022-08-22T07:12:20.037Z,100782.38
2022-08-22T07:15:44.588Z,100790.88
2022-08-22T07:19:07.721Z,100786.63
2022-08-22T07:22:33.167Z,100788.91
2022-08-22T07:26:00.048Z,100799.97
2022-08-22T07:29:34.063Z,100807.94
2022-08-22T07:33:26.034Z,100810.47
2022-08-22T07:36:49.108Z,100815.78
2022-08-22T07:40:23.251Z,100812.16
2022-08-22T07:43:49.929Z,100816.38
2022-08-22T07:47:18.003Z,100825.91
2022-08-22T07:51:00.617Z,100827.97
2022-08-22T07:54:27.102Z,100829.66
2022-08-22T07:57:55.789Z,100838.34
2022-08-22T08:01:19.687Z,100832.03
2022-08-22T08:04:42.630Z,100845.59
2022-08-22T08:08:15.530Z,100842.94
2022-08-22T08:11:42.413Z,100848.25
2022-08-22T08:15:07.470Z,100842.22
2022-08-22T08:18:31.560Z,100849.59
2022-08-22T08:21:57.307Z,100842.41
2022-08-22T08:25:23.707Z,100852.78
2022-08-22T08:28:49.554Z,100854.91
2022-08-22T08:32:14.035Z,100847.53
2022-08-22T08:35:42.698Z,100855.50
2022-08-22T08:39:35.173Z,100857.63
2022-08-22T08:43:29.705Z,100861.75
2022-08-22T08:47:16.719Z,100863.56
2022-08-22T08:50:57.853Z,100876.97
2022-08-22T08:54:44.194Z,100873.78
2022-08-22T08:58:37.872Z,100879.66
2022-08-22T09:02:34.916Z,100882.22
2022-08-22T09:06:16.809Z,100880.25
2022-08-22T09:09:45.857Z,100889.13
2022-08-22T09:17:38.795Z,100885.03
2022-08-22T09:21:39.747Z,100879.72
2022-08-22T09:25:23.519Z,100874.75
2022-08-22T09:28:55.225Z,100895.25
2022-08-22T09:32:23.883Z,100896.09
2022-08-22T09:35:55.367Z,100901.78
2022-08-22T09:39:25.346Z,100897.50
2022-08-22T09:40:15.454Z,100892.75
2022-08-22T09:43:02.705Z,100907.03
2022-08-22T09:46:36.626Z,100917.38
2022-08-22T09:50:13.859Z,100910.75
2022-08-22T09:54:02.497Z,100922.13
2022-08-22T09:57:36.841Z,100926.88
2022-08-22T10:01:03.007Z,100932.28
2022-08-22T10:04:53.856Z,100934.69
2022-08-22T10:08:38.296Z,100933.94
2022-08-22T10:12:04.800Z,100943.53
2022-08-22T10:15:41.618Z,100946.31
2022-08-22T10:19:14.039Z,100942.47
2022-08-22T10:22:47.524Z,100951.69
2022-08-22T10:26:22.812Z,100958.38
2022-08-22T10:30:02.185Z,100960.78
2022-08-22T10:33:33.632Z,100968.31
2022-08-22T10:37:10.317Z,100971.13
2022-08-22T10:40:39.021Z,100976.84
2022-08-22T10:44:11.516Z,100975.88
2022-08-22T10:47:39.620Z,100986.00
2022-08-22T10:51:24.946Z,100986.31
2022-08-22T10:54:54.103Z,100992.94
2022-08-22T10:58:24.776Z,100992.69
2022-08-22T11:01:57.141Z,100993.47
2022-08-22T11:05:31.274Z,100991.31
2022-08-22T11:09:16.843Z,100992.25
2022-08-22T11:12:45.734Z,100998.03
2022-08-22T11:16:28.772Z,101002.19
2022-08-22T11:20:05.353Z,101006.75
2022-08-22T11:23:41.851Z,101011.75
2022-08-22T11:27:14.696Z,101014.69
2022-08-22T11:30:52.285Z,101016.50
2022-08-22T11:34:29.251Z,101015.56
2022-08-22T11:38:01.354Z,101012.31
2022-08-22T11:41:29.231Z,101015.69
2022-08-22T11:44:55.646Z,101003.91
2022-08-22T11:48:25.126Z,101021.47
2022-08-22T11:52:11.569Z,101025.03
2022-08-22T11:55:38.562Z,101026.81
2022-08-22T11:59:06.516Z,101032.53
2022-08-22T12:02:31.834Z,101044.44
2022-08-22T12:06:02.629Z,101048.56
2022-08-22T12:09:42.274Z,101051.38
2022-08-22T12:13:10.036Z,101050.97
2022-08-22T12:16:45.149Z,101044.22
2022-08-22T12:20:18.981Z,101038.84
2022-08-22T12:24:11.240Z,101045.84
2022-08-22T12:27:56.908Z,101046.06
2022-08-22T12:31:35.197Z,101046.53
2022-08-22T12:35:16.312Z,101040.78
2022-08-22T12:38:55.971Z,101050.22
2022-08-22T12:42:40.122Z,101036.72
2022-08-22T12:46:17.410Z,101043.78
2022-08-22T12:50:05.001Z,101052.19
2022-08-22T12:53:50.978Z,101041.63
2022-08-22T12:57:24.616Z,101044.00
2022-08-22T13:00:49.505Z,101046.56
2022-08-22T13:04:32.555Z,101051.88
2022-08-22T13:08:02.360Z,101054.28
2022-08-22T13:11:26.929Z,101057.19
2022-08-22T13:14:56.210Z,101067.16
2022-08-22T13:18:30.254Z,101067.59
2022-08-22T13:21:59.820Z,101055.84
2022-08-22T13:25:26.584Z,101071.13
2022-08-22T13:29:04.306Z,101077.75
2022-08-22T13:32:39.567Z,101078.59
2022-08-22T13:36:10.917Z,101077.72
2022-08-22T13:39:36.970Z,101069.72
2022-08-22T13:43:09.377Z,101087.28
2022-08-22T13:46:35.465Z,101078.03
2022-08-22T13:50:08.849Z,101086.72
2022-08-22T13:53:41.580Z,101073.09
2022-08-22T13:57:13.245Z,101079.97
2022-08-22T14:01:25.616Z,101089.06
2022-08-22T14:04:54.419Z,101099.19
2022-08-22T14:08:22.100Z,101095.22
2022-08-22T14:11:51.247Z,101100.28
2022-08-22T14:15:21.108Z,101099.03
2022-08-22T14:18:49.162Z,101096.19
2022-08-22T14:22:14.493Z,101113.50
2022-08-22T14:25:39.227Z,101109.84
2022-08-22T14:29:06.323Z,101109.97
2022-08-22T14:32:48.360Z,101110.38
2022-08-22T14:36:18.600Z,101115.59
2022-08-22T14:39:46.875Z,101122.06
2022-08-22T14:43:22.544Z,101122.22
2022-08-22T14:46:52.469Z,101114.78
2022-08-22T14:50:44.572Z,101118.56
2022-08-22T14:54:13.853Z,101117.31
2022-08-22T14:57:42.552Z,101123.94
2022-08-22T15:01:11.549Z,101122.25
2022-08-22T15:04:38.177Z,101115.66
2022-08-22T15:08:01.975Z,101116.94
2022-08-22T15:11:31.823Z,101101.91
2022-08-22T15:14:57.476Z,101118.72
2022-08-22T15:18:33.881Z,101132.50
2022-08-22T15:22:13.697Z,101136.44
2022-08-22T15:25:41.421Z,101131.97
2022-08-22T15:29:09.234Z,101124.22
2022-08-22T15:32:36.387Z,101126.75
2022-08-22T15:36:15.696Z,101127.72
2022-08-22T15:39:58.539Z,101123.34
2022-08-22T15:43:28.914Z,101126.28
2022-08-22T15:47:06.255Z,101139.19
2022-08-22T15:50:38.352Z,101135.94
2022-08-22T15:54:16.060Z,101132.81
2022-08-22T15:58:04.725Z,101133.53
2022-08-22T16:01:30.231Z,101131.66
2022-08-22T16:05:03.994Z,101153.94
2022-08-22T16:08:32.711Z,101141.06
2022-08-22T16:11:57.877Z,101143.84
2022-08-22T16:15:57.136Z,101143.13
2022-08-22T16:19:24.165Z,101137.59
2022-08-22T16:23:08.991Z,101157.66
2022-08-22T16:26:41.184Z,101133.69
2022-08-22T16:30:17.930Z,101162.91
2022-08-22T16:33:43.633Z,101160.06
2022-08-22T16:37:36.069Z,101154.00
2022-08-22T16:40:58.634Z,101155.25
2022-08-22T16:44:43.420Z,101161.84
2022-08-22T16:48:18.153Z,101170.47
2022-08-22T16:52:27.764Z,101166.75
2022-08-22T16:56:10.236Z,101165.03
2022-08-22T16:59:50.787Z,101170.63
2022-08-22T17:03:21.898Z,101180.66
2022-08-22T17:06:57.393Z,101175.84
2022-08-22T17:10:32.593Z,101178.75
2022-08-22T17:14:17.676Z,101181.56
2022-08-22T17:17:57.223Z,101181.81
2022-08-22T17:21:27.381Z,101160.31
2022-08-22T17:25:04.531Z,101192.50
2022-08-22T17:28:41.004Z,101186.09
2022-08-22T17:32:16.508Z,101185.03
2022-08-22T17:35:50.364Z,101192.41
2022-08-22T17:39:24.038Z,101195.56
2022-08-22T17:42:59.755Z,101194.88
2022-08-22T17:46:34.908Z,101199.47
2022-08-22T17:50:04.511Z,101203.47
2022-08-22T17:53:37.525Z,101206.47
2022-08-22T17:57:05.697Z,101207.59
2022-08-22T18:00:32.641Z,101217.16
2022-08-22T18:04:00.706Z,101213.03
2022-08-22T18:07:57.830Z,101213.91
2022-08-22T18:11:26.825Z,101213.66
2022-08-22T18:14:55.180Z,101223.44
2022-08-22T18:18:30.344Z,101214.25
2022-08-22T18:21:57.470Z,101213.91
2022-08-22T18:25:37.978Z,101192.38
2022-08-22T18:29:17.537Z,101223.56
2022-08-22T18:32:47.263Z,101216.44
2022-08-22T18:36:15.696Z,101214.47
2022-08-22T18:39:50.332Z,101228.59
2022-08-22T18:43:24.142Z,101201.31
2022-08-22T18:46:51.608Z,101224.75
2022-08-22T18:50:31.929Z,101231.22
2022-08-22T18:53:56.313Z,101237.66
2022-08-22T18:57:40.317Z,101242.09
2022-08-22T19:01:18.399Z,101232.66
2022-08-22T19:04:56.433Z,101248.25
2022-08-22T19:08:44.300Z,101244.25
2022-08-22T19:12:20.714Z,101239.28
2022-08-22T19:15:56.125Z,101245.56
2022-08-22T19:19:23.157Z,101249.19
2022-08-22T19:22:45.528Z,101246.63
2022-08-22T19:26:25.891Z,101249.53
2022-08-22T19:29:57.956Z,101260.50
2022-08-22T19:33:27.663Z,101256.25
2022-08-22T19:37:32.928Z,101247.94
2022-08-22T19:40:58.346Z,101248.47
2022-08-22T19:44:40.673Z,101245.84
2022-08-22T19:48:14.244Z,101248.84
2022-08-22T19:51:36.776Z,101252.66
2022-08-22T19:55:22.756Z,101254.38
2022-08-22T19:58:56.105Z,101252.19
2022-08-22T20:02:35.338Z,101241.56
2022-08-22T20:06:05.923Z,101269.50
2022-08-22T20:09:42.372Z,101271.50
2022-08-22T20:13:12.058Z,101266.66
2022-08-22T20:17:03.193Z,101268.56
2022-08-22T20:20:36.106Z,101272.19
2022-08-22T20:23:58.334Z,101277.81
2022-08-22T20:27:24.753Z,101285.88
2022-08-22T20:30:51.072Z,101269.22
2022-08-22T20:34:17.797Z,101273.28
2022-08-22T20:38:05.830Z,101283.78
2022-08-22T20:41:28.982Z,101270.75
2022-08-22T20:44:55.126Z,101283.38
2022-08-22T20:48:18.736Z,101239.00
2022-08-22T20:51:52.259Z,101265.16
2022-08-22T20:55:17.596Z,101255.88
2022-08-22T20:58:47.132Z,101269.41
2022-08-22T21:02:16.372Z,101278.44
2022-08-22T21:05:42.473Z,101286.38
2022-08-22T21:09:31.012Z,101265.84
2022-08-22T21:13:07.077Z,101290.63
2022-08-22T21:16:31.949Z,101284.91
2022-08-22T21:19:54.346Z,101292.13
2022-08-22T21:23:21.475Z,101285.13
2022-08-22T21:26:50.636Z,101278.16
2022-08-22T21:30:21.967Z,101286.19
2022-08-22T21:33:48.307Z,101284.28
2022-08-22T21:37:15.349Z,101282.50
2022-08-22T21:40:39.903Z,101283.31
2022-08-22T21:44:20.602Z,101285.25
2022-08-22T21:47:43.954Z,101290.03
2022-08-22T21:51:29.549Z,101289.28
2022-08-22T21:54:51.527Z,101289.50
2022-08-22T21:58:36.614Z,101303.38
2022-08-22T22:02:29.798Z,101293.00
2022-08-22T22:05:55.015Z,101295.75
2022-08-22T22:09:16.869Z,101293.34
2022-08-22T22:12:41.096Z,101297.88
2022-08-22T22:16:04.808Z,101295.56
2022-08-22T22:19:26.962Z,101304.38
2022-08-22T22:22:49.124Z,101309.53
2022-08-22T22:26:11.621Z,101298.44
2022-08-22T22:29:34.459Z,101306.25
2022-08-22T22:32:57.719Z,101314.34
2022-08-22T22:36:24.909Z,101307.31
2022-08-22T22:39:46.765Z,101305.63
2022-08-22T22:43:08.752Z,101303.19
2022-08-22T22:46:31.073Z,101299.78
2022-08-22T22:49:55.763Z,101302.00
2022-08-22T22:53:38.443Z,101305.50
2022-08-22T22:57:01.146Z,101302.97
2022-08-22T23:00:23.107Z,101300.31
2022-08-22T23:03:55.300Z,101283.66
2022-08-22T23:07:19.646Z,101300.75
2022-08-22T23:10:41.837Z,101298.94
2022-08-22T23:14:03.793Z,101275.50
2022-08-22T23:17:25.690Z,101291.59
2022-08-22T23:20:47.615Z,101300.97
2022-08-22T23:24:11.632Z,101295.00
2022-08-22T23:27:34.064Z,101297.56
2022-08-22T23:30:56.015Z,101299.47
2022-08-22T23:34:22.928Z,101303.84
2022-08-22T23:37:45.168Z,101303.88
2022-08-22T23:41:12.052Z,101299.13
2022-08-22T23:44:36.189Z,101297.34
2022-08-22T23:47:57.828Z,101293.84
2022-08-22T23:51:23.229Z,101276.91
2022-08-22T23:54:45.407Z,101292.38
2022-08-22T23:58:08.897Z,101294.88
